Time;durP1;ratioP1;P1;durP2;ratioP2;P2;SDS_P1;SDS_P2;PMS_P1;PMS_P2;Temp;Humidity;BMP_temperature;BMP_pressure;BME280_temperature;BME280_humidity;BME280_pressure;Samples;Min_cycle;Max_cycle;Signal;HPM_P1;HPM_P2
2021/12/22 00:01:53;;;;;;;3.25;1.83;;;-1.40;99.90;;;;;;5040751;28;20796;-71
2021/12/22 00:04:24;;;;;;;0.10;0.10;;;-1.40;99.90;;;;;;5029171;28;20029;-70
2021/12/22 00:06:51;;;;;;;0.10;0.10;;;-1.50;99.90;;;;;;5029488;28;20385;-70
2021/12/22 00:09:17;;;;;;;1.55;1.45;;;-1.50;99.90;;;;;;5028733;28;20052;-71
2021/12/22 00:11:43;;;;;;;3.20;2.50;;;-1.50;99.90;;;;;;5034963;28;20381;-70
2021/12/22 00:14:10;;;;;;;0.10;0.10;;;-1.40;99.90;;;;;;5034777;28;20044;-68
2021/12/22 00:16:36;;;;;;;0.30;0.30;;;-1.30;99.90;;;;;;5034290;28;20025;-71
2021/12/22 00:19:03;;;;;;;0.10;0.10;;;-1.20;99.90;;;;;;5030390;28;20543;-70
2021/12/22 00:21:29;;;;;;;1.38;0.80;;;-1.20;99.90;;;;;;5044249;28;20370;-71
2021/12/22 00:23:56;;;;;;;0.30;0.30;;;-1.10;99.90;;;;;;5049377;28;20033;-72
2021/12/22 00:26:22;;;;;;;2.63;1.85;;;-1.10;99.90;;;;;;5049829;28;20591;-71
2021/12/22 00:28:48;;;;;;;0.10;0.10;;;-1.10;99.90;;;;;;5037655;28;20056;-71
2021/12/22 00:31:15;;;;;;;0.10;0.10;;;-1.10;99.90;;;;;;5044047;28;20036;-70
2021/12/22 00:33:48;;;;;;;1.05;0.95;;;-1.10;99.90;;;;;;5049545;28;20048;-72
2021/12/22 00:36:17;;;;;;;0.20;0.20;;;-1.10;99.90;;;;;;5047874;28;20039;-72
2021/12/22 00:38:43;;;;;;;0.55;0.55;;;-1.10;99.90;;;;;;5049480;28;20043;-71
2021/12/22 00:41:09;;;;;;;0.20;0.20;;;-1.20;99.90;;;;;;5048493;28;20478;-69
2021/12/22 00:43:35;;;;;;;0.15;0.15;;;-1.10;99.90;;;;;;5047788;28;20074;-71
2021/12/22 00:46:00;;;;;;;0.85;0.82;;;-1.20;99.90;;;;;;5035301;28;20068;-70
2021/12/22 00:48:26;;;;;;;0.70;0.70;;;-1.30;99.90;;;;;;5049774;28;20029;-70
2021/12/22 00:50:52;;;;;;;0.10;0.10;;;-1.40;99.90;;;;;;5061626;28;20120;-71
2021/12/22 00:53:18;;;;;;;0.10;0.10;;;-1.50;99.90;;;;;;5060661;28;20026;-71
2021/12/22 00:55:44;;;;;;;0.10;0.10;;;-1.50;99.90;;;;;;5029634;28;20033;-70
2021/12/22 00:58:10;;;;;;;3.00;1.98;;;-1.60;99.90;;;;;;5036036;28;20145;-70
2021/12/22 01:00:36;;;;;;;0.10;0.10;;;-1.60;99.90;;;;;;5055280;28;20131;-73
2021/12/22 01:03:03;;;;;;;4.88;2.08;;;-1.60;99.90;;;;;;5046604;28;20023;-70
2021/12/22 01:05:29;;;;;;;0.10;0.10;;;-1.60;99.90;;;;;;5030528;28;20029;-70
2021/12/22 01:07:54;;;;;;;0.30;0.30;;;-1.60;99.90;;;;;;5060495;28;20028;-71
2021/12/22 01:10:26;;;;;;;2.30;2.03;;;-1.60;99.90;;;;;;5052312;28;20043;-70
2021/12/22 01:12:54;;;;;;;0.20;0.20;;;-1.50;99.90;;;;;;5049906;28;20094;-70
2021/12/22 01:15:21;;;;;;;0.20;0.20;;;-1.40;99.90;;;;;;5052396;28;20064;-70
2021/12/22 01:17:51;;;;;;;1.38;1.27;;;-1.40;99.90;;;;;;5052547;28;20029;-70
2021/12/22 01:20:33;;;;;;;1.92;1.83;;;-1.40;99.90;;;;;;5047625;28;20018;-70
2021/12/22 01:23:03;;;;;;;2.55;2.45;;;-1.40;99.90;;;;;;5032711;28;20449;-71
2021/12/22 01:25:42;;;;;;;0.10;0.10;;;-1.40;99.90;;;;;;5033837;28;20124;-71
2021/12/22 01:28:08;;;;;;;0.38;0.38;;;-1.40;99.90;;;;;;5052657;28;20469;-71
2021/12/22 01:30:36;;;;;;;0.57;0.57;;;-1.50;99.90;;;;;;5040529;28;20068;-70
2021/12/22 01:33:03;;;;;;;0.38;0.38;;;-1.60;99.90;;;;;;5032794;28;20031;-70
2021/12/22 01:35:31;;;;;;;0.10;0.10;;;-1.50;99.90;;;;;;5031906;28;20095;-71
2021/12/22 01:37:57;;;;;;;5.13;3.63;;;-1.50;99.90;;;;;;5032393;28;20060;-70
2021/12/22 01:40:23;;;;;;;0.55;0.55;;;-1.40;99.90;;;;;;5033078;28;20022;-70
2021/12/22 01:42:51;;;;;;;2.17;1.85;;;-1.40;99.90;;;;;;5037725;28;20430;-71
2021/12/22 01:51:05;;;;;;;1.38;1.30;;;-1.70;99.90;;;;;;5031173;28;20036;-70
2021/12/22 01:53:49;;;;;;;4.95;4.47;;;-1.60;99.90;;;;;;5039367;28;20115;-70
2021/12/22 01:58:48;;;;;;;0.10;0.10;;;-1.80;99.90;;;;;;5040588;28;20068;-70
2021/12/22 02:01:15;;;;;;;0.47;0.47;;;-1.80;99.90;;;;;;5060480;28;20052;-71
2021/12/22 02:03:43;;;;;;;0.10;0.10;;;-1.90;99.90;;;;;;5050414;28;20027;-71
2021/12/22 02:06:09;;;;;;;0.10;0.10;;;-1.90;99.90;;;;;;5036613;28;20026;-70
2021/12/22 02:08:36;;;;;;;1.42;1.42;;;-2.00;99.90;;;;;;5031812;28;20096;-70
2021/12/22 02:11:04;;;;;;;1.20;1.20;;;-2.00;99.90;;;;;;5031862;28;20029;-70
2021/12/22 02:13:34;;;;;;;0.28;0.28;;;-2.00;99.90;;;;;;5036242;28;20431;-70
2021/12/22 02:16:07;;;;;;;1.58;1.48;;;-2.00;99.90;;;;;;5062450;28;20044;-70
2021/12/22 02:18:35;;;;;;;0.10;0.10;;;-1.90;99.90;;;;;;5049553;28;20445;-71
2021/12/22 02:21:01;;;;;;;0.10;0.10;;;-1.80;99.90;;;;;;5050566;28;20029;-71
2021/12/22 02:23:27;;;;;;;1.00;1.00;;;-1.70;99.90;;;;;;5039870;28;20067;-70
2021/12/22 02:25:58;;;;;;;0.13;0.13;;;-1.70;99.90;;;;;;5046013;28;20057;-70
2021/12/22 02:28:29;;;;;;;6.13;3.35;;;-1.70;99.90;;;;;;5050984;28;20098;-70
2021/12/22 02:30:55;;;;;;;0.10;0.10;;;-1.60;99.90;;;;;;5050416;28;20029;-70
2021/12/22 02:36:07;;;;;;;0.20;0.20;;;-1.80;99.90;;;;;;5047293;28;20145;-70
2021/12/22 02:38:35;;;;;;;0.10;0.10;;;-1.70;99.90;;;;;;5049974;28;20500;-70
2021/12/22 02:41:02;;;;;;;0.15;0.15;;;-1.70;99.90;;;;;;5045651;28;20128;-70
2021/12/22 02:43:32;;;;;;;0.13;0.13;;;-1.70;99.90;;;;;;5050122;28;20027;-70
2021/12/22 02:45:59;;;;;;;2.38;2.28;;;-1.70;99.90;;;;;;5047355;28;20022;-71
2021/12/22 02:48:30;;;;;;;2.17;1.85;;;-1.70;99.90;;;;;;5030753;28;20427;-70
2021/12/22 02:50:59;;;;;;;0.20;0.20;;;-1.70;99.90;;;;;;5030127;28;20575;-70
2021/12/22 02:53:30;;;;;;;1.20;1.20;;;-1.80;99.90;;;;;;5030457;28;20220;-71
2021/12/22 02:56:12;;;;;;;0.10;0.10;;;-1.80;99.90;;;;;;5031303;28;20025;-70
2021/12/22 02:59:02;;;;;;;0.10;0.10;;;-1.70;99.90;;;;;;5036269;28;20055;-72
2021/12/22 03:06:26;;;;;;;0.40;0.40;;;-1.80;99.90;;;;;;5035537;28;20033;-71
2021/12/22 03:08:52;;;;;;;5.78;2.92;;;-1.80;99.90;;;;;;5037291;28;20544;-70
2021/12/22 03:11:17;;;;;;;0.10;0.10;;;-2.00;99.90;;;;;;5049448;28;20032;-69
2021/12/22 03:13:43;;;;;;;0.90;0.90;;;-2.20;99.90;;;;;;5050237;28;20397;-71
2021/12/22 03:16:09;;;;;;;0.40;0.40;;;-2.20;99.90;;;;;;5035182;28;20095;-70
2021/12/22 03:18:35;;;;;;;2.60;1.45;;;-2.30;99.90;;;;;;5045663;28;20047;-70
2021/12/22 03:21:14;;;;;;;0.10;0.10;;;-2.20;99.90;;;;;;5048148;28;20031;-70
2021/12/22 03:23:40;;;;;;;0.45;0.45;;;-2.20;99.90;;;;;;5047570;28;20025;-69
2021/12/22 03:26:06;;;;;;;0.10;0.10;;;-2.10;99.90;;;;;;5056919;28;20074;-70
2021/12/22 03:28:31;;;;;;;0.40;0.40;;;-2.10;99.90;;;;;;5052939;28;20501;-69
2021/12/22 03:30:59;;;;;;;1.13;1.13;;;-2.10;99.90;;;;;;5048063;28;20033;-71
2021/12/22 03:33:25;;;;;;;0.20;0.20;;;-2.20;99.90;;;;;;5049340;28;20020;-72
2021/12/22 03:35:51;;;;;;;0.10;0.10;;;-2.20;99.90;;;;;;5046638;28;20033;-68
2021/12/22 03:38:16;;;;;;;1.45;1.40;;;-2.30;99.90;;;;;;5060161;28;20107;-69
2021/12/22 03:40:42;;;;;;;15.00;4.78;;;-2.40;99.90;;;;;;5051389;28;20159;-69
2021/12/22 03:43:08;;;;;;;0.40;0.40;;;-2.40;99.90;;;;;;5053877;28;20117;-70
2021/12/22 03:45:33;;;;;;;0.15;0.15;;;-2.30;99.90;;;;;;5049822;28;20434;-69
2021/12/22 03:47:59;;;;;;;0.10;0.10;;;-2.20;99.90;;;;;;5049781;28;20390;-71
2021/12/22 03:50:25;;;;;;;0.10;0.10;;;-2.20;99.90;;;;;;5044009;28;20031;-71
2021/12/22 03:52:51;;;;;;;0.10;0.10;;;-2.20;99.90;;;;;;5045162;28;20025;-70
2021/12/22 03:55:16;;;;;;;0.00;0.00;;;-2.20;99.90;;;;;;5028749;28;20029;-70
2021/12/22 03:57:42;;;;;;;0.43;0.43;;;-2.20;99.90;;;;;;5029307;28;20679;-71
2021/12/22 04:00:11;;;;;;;0.10;0.10;;;-2.20;99.90;;;;;;5049559;28;20552;-70
2021/12/22 04:02:37;;;;;;;0.10;0.10;;;-2.20;99.90;;;;;;5056376;28;20048;-70
2021/12/22 04:05:04;;;;;;;1.38;1.35;;;-2.10;99.90;;;;;;5037367;28;20138;-71
2021/12/22 04:07:31;;;;;;;0.10;0.10;;;-2.20;99.90;;;;;;5030732;28;20017;-69
2021/12/22 04:09:58;;;;;;;11.70;5.25;;;-2.20;99.90;;;;;;5063046;28;20088;-70
2021/12/22 04:12:23;;;;;;;0.95;0.95;;;-2.30;99.90;;;;;;5061046;28;20035;-70
2021/12/22 04:14:49;;;;;;;0.47;0.47;;;-2.40;99.90;;;;;;5050052;28;20516;-71
2021/12/22 04:17:16;;;;;;;0.10;0.10;;;-2.40;99.90;;;;;;5050122;28;20056;-71
2021/12/22 04:19:41;;;;;;;0.68;0.68;;;-2.40;99.90;;;;;;5032097;28;20164;-72
2021/12/22 04:22:08;;;;;;;0.95;0.95;;;-2.30;99.90;;;;;;5029501;28;20053;-70
2021/12/22 04:24:34;;;;;;;0.20;0.20;;;-2.20;99.90;;;;;;5042776;28;20373;-71
2021/12/22 04:27:00;;;;;;;0.28;0.28;;;-2.30;99.90;;;;;;5048002;28;20149;-70
2021/12/22 04:29:26;;;;;;;0.10;0.10;;;-2.40;99.90;;;;;;5035490;28;20113;-71
2021/12/22 04:31:52;;;;;;;0.30;0.30;;;-2.50;99.90;;;;;;5037535;28;20116;-71
2021/12/22 04:34:17;;;;;;;21.35;4.40;;;-2.60;99.90;;;;;;5055729;28;20029;-71
2021/12/22 04:36:43;;;;;;;8.80;8.00;;;-2.50;99.90;;;;;;5053138;28;20036;-71
2021/12/22 04:39:10;;;;;;;0.47;0.47;;;-2.40;99.90;;;;;;5032806;28;20086;-70
2021/12/22 04:41:36;;;;;;;1.13;1.13;;;-2.40;99.90;;;;;;5032687;28;20108;-70
2021/12/22 04:44:03;;;;;;;0.10;0.10;;;-2.40;99.90;;;;;;5033229;28;20022;-71
2021/12/22 04:46:29;;;;;;;2.42;2.28;;;-2.40;99.90;;;;;;5038110;28;20025;-70
2021/12/22 04:48:54;;;;;;;5.05;4.68;;;-2.40;99.90;;;;;;5053449;28;20385;-70
2021/12/22 04:51:27;;;;;;;0.75;0.75;;;-2.50;99.90;;;;;;5052379;28;20056;-70
2021/12/22 04:54:16;;;;;;;0.28;0.28;;;-2.40;99.90;;;;;;5048472;28;20033;-70
2021/12/22 04:56:42;;;;;;;0.10;0.10;;;-2.30;99.90;;;;;;5048538;28;20033;-70
2021/12/22 04:59:08;;;;;;;2.75;1.88;;;-2.30;99.90;;;;;;5052141;28;20967;-70
2021/12/22 05:01:34;;;;;;;0.10;0.10;;;-2.30;99.90;;;;;;5062106;28;20028;-69
2021/12/22 05:04:00;;;;;;;0.10;0.10;;;-2.30;99.90;;;;;;5048957;28;20025;-69
2021/12/22 05:06:26;;;;;;;3.42;3.22;;;-2.30;99.90;;;;;;5030644;28;20025;-70
2021/12/22 05:08:53;;;;;;;0.17;0.17;;;-2.30;99.90;;;;;;5047443;28;20025;-69
2021/12/22 05:11:19;;;;;;;0.10;0.10;;;-2.30;99.90;;;;;;5051820;28;20040;-71
2021/12/22 05:13:45;;;;;;;0.10;0.10;;;-2.30;99.90;;;;;;5052477;28;20037;-71
2021/12/22 05:16:17;;;;;;;9.45;7.22;;;-2.40;99.90;;;;;;5042259;28;20037;-71
2021/12/22 05:18:59;;;;;;;0.65;0.65;;;-2.50;99.90;;;;;;5030849;28;20030;-71
2021/12/22 05:21:26;;;;;;;0.30;0.30;;;-2.60;99.90;;;;;;5032000;28;20427;-70
2021/12/22 05:23:55;;;;;;;3.63;3.30;;;-2.60;99.90;;;;;;5046862;28;20040;-71
2021/12/22 05:26:22;;;;;;;6.85;4.40;;;-2.60;99.90;;;;;;5052605;28;20024;-70
2021/12/22 05:28:49;;;;;;;1.58;1.05;;;-2.50;99.90;;;;;;5049964;28;20766;-71
2021/12/22 05:31:15;;;;;;;0.30;0.30;;;-2.50;99.90;;;;;;5043559;28;20489;-70
2021/12/22 05:33:41;;;;;;;0.10;0.10;;;-2.50;99.90;;;;;;5031523;28;20042;-69
2021/12/22 05:36:06;;;;;;;0.10;0.10;;;-2.40;99.90;;;;;;5032073;28;20326;-72
2021/12/22 05:38:32;;;;;;;3.30;3.00;;;-2.50;99.90;;;;;;5033198;28;20038;-71
2021/12/22 05:40:58;;;;;;;0.65;0.65;;;-2.40;99.90;;;;;;5048061;28;20029;-70
2021/12/22 05:43:24;;;;;;;0.28;0.28;;;-2.40;99.90;;;;;;5051554;28;20478;-70
2021/12/22 05:45:50;;;;;;;1.55;1.48;;;-2.50;99.90;;;;;;5051252;28;20028;-69
2021/12/22 05:48:15;;;;;;;0.57;0.57;;;-2.40;99.90;;;;;;5052686;28;20025;-71
2021/12/22 05:50:45;;;;;;;0.30;0.30;;;-2.50;99.90;;;;;;5066831;28;20086;-70
2021/12/22 05:53:11;;;;;;;5.65;1.65;;;-2.50;99.90;;;;;;5062379;28;20036;-71
2021/12/22 05:55:37;;;;;;;0.60;0.60;;;-2.40;99.90;;;;;;5044078;28;20030;-70
2021/12/22 05:58:03;;;;;;;0.30;0.30;;;-2.40;99.90;;;;;;5032136;28;20029;-70
2021/12/22 06:00:29;;;;;;;2.10;2.00;;;-2.40;99.90;;;;;;5039782;28;20029;-69
2021/12/22 06:02:55;;;;;;;1.23;1.17;;;-2.40;99.90;;;;;;5050703;28;20017;-69
2021/12/22 06:05:21;;;;;;;0.25;0.25;;;-2.40;99.90;;;;;;5031558;28;20033;-71
2021/12/22 06:07:46;;;;;;;0.10;0.10;;;-2.40;99.90;;;;;;5032492;28;20022;-71
2021/12/22 06:10:12;;;;;;;0.10;0.10;;;-2.40;99.90;;;;;;5049520;28;20025;-71
2021/12/22 06:12:38;;;;;;;0.25;0.25;;;-2.40;99.90;;;;;;5051030;28;20035;-71
2021/12/22 06:15:05;;;;;;;0.17;0.17;;;-2.50;99.90;;;;;;5044030;28;20798;-71
2021/12/22 06:17:30;;;;;;;0.10;0.10;;;-2.40;99.90;;;;;;5038754;28;20055;-71
2021/12/22 06:19:57;;;;;;;0.10;0.10;;;-1.70;99.90;;;;;;5049430;28;20025;-70
2021/12/22 06:22:23;;;;;;;0.10;0.10;;;-2.30;99.90;;;;;;5034163;28;20025;-70
2021/12/22 06:24:49;;;;;;;0.10;0.10;;;-2.40;99.90;;;;;;5046696;28;20449;-70
2021/12/22 06:27:15;;;;;;;0.10;0.10;;;-2.40;99.90;;;;;;5051444;28;20105;-69
2021/12/22 06:29:41;;;;;;;1.00;1.00;;;-2.40;99.90;;;;;;5047361;28;20120;-70
2021/12/22 06:32:08;;;;;;;1.00;1.00;;;-2.40;99.90;;;;;;5031049;28;20021;-70
2021/12/22 06:34:33;;;;;;;0.20;0.20;;;-2.40;99.90;;;;;;5029642;28;20053;-70
2021/12/22 06:36:59;;;;;;;0.52;0.52;;;-2.40;99.90;;;;;;5050070;28;20496;-71
2021/12/22 06:39:25;;;;;;;3.05;2.90;;;-2.40;99.90;;;;;;5043847;28;21257;-68
2021/12/22 06:41:51;;;;;;;7.13;1.75;;;-2.40;99.90;;;;;;5043985;28;20078;-69
2021/12/22 06:44:17;;;;;;;1.17;1.17;;;-2.30;99.90;;;;;;5050537;28;20035;-71
2021/12/22 06:46:43;;;;;;;0.10;0.10;;;-2.50;99.90;;;;;;5048698;28;20025;-69
2021/12/22 06:49:10;;;;;;;0.13;0.13;;;-2.50;99.90;;;;;;5033023;28;20029;-70
2021/12/22 06:51:36;;;;;;;0.20;0.20;;;-2.50;99.90;;;;;;5050789;28;20100;-70
2021/12/22 06:54:03;;;;;;;0.32;0.32;;;-2.60;99.90;;;;;;5042161;28;20020;-69
2021/12/22 06:56:28;;;;;;;0.10;0.10;;;-2.60;99.90;;;;;;5044177;28;20037;-72
2021/12/22 06:58:57;;;;;;;0.10;0.10;;;-2.60;99.90;;;;;;5050921;28;20469;-69
2021/12/22 07:01:23;;;;;;;4.50;3.30;;;-2.60;99.90;;;;;;5052471;28;20021;-71
2021/12/22 07:03:52;;;;;;;0.10;0.10;;;-2.60;99.90;;;;;;5051867;28;20036;-70
2021/12/22 07:06:18;;;;;;;0.73;0.73;;;-2.50;99.90;;;;;;5047937;28;20013;-71
2021/12/22 07:08:44;;;;;;;1.95;1.85;;;-2.80;99.90;;;;;;5045104;28;20485;-70
2021/12/22 07:11:10;;;;;;;3.92;1.08;;;-2.90;99.90;;;;;;5037956;28;20033;-71
2021/12/22 07:13:37;;;;;;;0.20;0.20;;;-3.00;99.90;;;;;;5047606;28;20052;-70
2021/12/22 07:16:31;;;;;;;;;;;;;;;;;;;;;
2021/12/22 07:18:57;;;;;;;0.22;0.22;;;-2.80;99.90;;;;;;5047245;28;20037;-71
2021/12/22 07:21:24;;;;;;;0.10;0.10;;;-2.80;99.90;;;;;;5060357;28;20048;-71
2021/12/22 07:23:49;;;;;;;0.10;0.10;;;-2.70;99.90;;;;;;5060055;28;20025;-70
2021/12/22 07:26:16;;;;;;;0.10;0.10;;;-2.70;99.90;;;;;;5050510;28;20025;-72
2021/12/22 07:28:45;;;;;;;2.40;2.22;;;-2.60;99.90;;;;;;5033204;28;20536;-72
2021/12/22 07:31:12;;;;;;;0.30;0.30;;;-2.60;99.90;;;;;;5029952;28;20029;-73
2021/12/22 07:33:38;;;;;;;2.58;2.47;;;-2.60;99.90;;;;;;5041317;28;20330;-72
2021/12/22 07:36:05;;;;;;;0.20;0.20;;;-2.60;99.90;;;;;;5049636;28;20029;-71
2021/12/22 07:38:35;;;;;;;0.10;0.10;;;-2.70;99.90;;;;;;5048827;28;20234;-71
2021/12/22 07:41:03;;;;;;;0.80;0.80;;;-2.70;99.90;;;;;;5046929;28;20033;-71
2021/12/22 07:43:30;;;;;;;0.00;0.00;;;-2.80;99.90;;;;;;5028172;28;20032;-71
2021/12/22 07:45:56;;;;;;;0.30;0.30;;;-2.90;99.90;;;;;;5029589;28;20026;-73
2021/12/22 07:48:22;;;;;;;0.40;0.40;;;-2.80;99.90;;;;;;5028525;28;20025;-72
2021/12/22 07:50:48;;;;;;;0.10;0.10;;;-2.70;99.90;;;;;;5043291;28;20029;-73
2021/12/22 07:53:14;;;;;;;0.63;0.63;;;-2.70;99.90;;;;;;5045596;28;20037;-72
2021/12/22 07:55:40;;;;;;;0.20;0.20;;;-2.60;99.90;;;;;;5030333;28;20067;-69
2021/12/22 07:58:07;;;;;;;0.10;0.10;;;-2.60;99.90;;;;;;5029816;28;20116;-71
2021/12/22 08:00:33;;;;;;;0.20;0.20;;;-2.00;99.90;;;;;;5044383;28;20162;-71
2021/12/22 08:02:59;;;;;;;0.10;0.10;;;-2.50;99.90;;;;;;5048800;28;20021;-70
2021/12/22 08:05:25;;;;;;;0.20;0.20;;;-2.50;99.90;;;;;;5051818;28;20398;-72
2021/12/22 08:07:51;;;;;;;0.10;0.10;;;-2.50;99.90;;;;;;5058908;28;20020;-71
2021/12/22 08:10:19;;;;;;;0.10;0.10;;;-2.50;99.90;;;;;;5050631;28;20021;-71
2021/12/22 08:12:45;;;;;;;0.30;0.30;;;-2.50;99.90;;;;;;5030295;28;20136;-72
2021/12/22 08:15:10;;;;;;;0.10;0.10;;;-2.40;99.90;;;;;;5029827;28;20042;-71
2021/12/22 08:17:36;;;;;;;0.15;0.15;;;-2.40;99.90;;;;;;5042776;28;20024;-72
2021/12/22 08:20:04;;;;;;;0.10;0.10;;;-2.40;99.90;;;;;;5045505;28;20029;-71
2021/12/22 08:22:30;;;;;;;0.15;0.15;;;-2.40;99.90;;;;;;5049177;28;20223;-73
2021/12/22 08:24:56;;;;;;;0.10;0.10;;;-2.40;99.90;;;;;;5037657;28;20057;-73
2021/12/22 08:27:22;;;;;;;1.20;1.15;;;-2.40;99.90;;;;;;5031080;28;20112;-69
2021/12/22 08:29:49;;;;;;;2.33;2.20;;;-2.40;99.90;;;;;;5043599;28;20056;-71
2021/12/22 08:32:15;;;;;;;1.98;1.88;;;-2.40;99.90;;;;;;5042903;28;20063;-70
2021/12/22 08:34:42;;;;;;;0.47;0.47;;;-2.40;99.90;;;;;;5044904;28;20104;-74
2021/12/22 08:39:55;;;;;;;0.40;0.40;;;-2.50;99.90;;;;;;5039583;28;20120;-71
2021/12/22 08:42:22;;;;;;;0.38;0.38;;;-2.20;99.90;;;;;;5038813;28;20053;-71
2021/12/22 08:44:49;;;;;;;0.10;0.10;;;-2.10;99.90;;;;;;5042390;28;20056;-71
2021/12/22 08:47:16;;;;;;;0.10;0.10;;;-2.10;99.90;;;;;;5042189;28;20033;-71
2021/12/22 08:49:43;;;;;;;0.10;0.10;;;-2.00;99.90;;;;;;5044803;28;20041;-70
2021/12/22 08:52:09;;;;;;;0.82;0.82;;;-2.00;99.90;;;;;;5032908;28;20484;-70
2021/12/22 08:54:35;;;;;;;0.95;0.95;;;-1.90;99.90;;;;;;5039504;28;20040;-70
2021/12/22 08:57:01;;;;;;;0.20;0.20;;;-1.90;99.90;;;;;;5040164;28;20032;-71
2021/12/22 08:59:27;;;;;;;0.30;0.30;;;-1.80;99.90;;;;;;5047938;28;20063;-71
2021/12/22 09:01:53;;;;;;;0.10;0.10;;;-1.80;99.90;;;;;;5039250;28;20069;-63
2021/12/22 09:04:19;;;;;;;0.50;0.50;;;-1.90;99.90;;;;;;5038648;28;20086;-65
2021/12/22 09:06:47;;;;;;;0.43;0.43;;;-2.00;99.90;;;;;;5040025;28;20033;-61
2021/12/22 09:09:13;;;;;;;0.10;0.10;;;-2.00;99.90;;;;;;5038271;28;20481;-66
2021/12/22 09:11:41;;;;;;;0.10;0.10;;;-2.00;99.90;;;;;;5046492;28;20110;-63
2021/12/22 09:14:08;;;;;;;0.10;0.10;;;-2.00;99.90;;;;;;5053275;28;20048;-65
2021/12/22 09:16:36;;;;;;;0.10;0.10;;;-1.80;99.90;;;;;;5031712;28;20014;-66
2021/12/22 09:19:02;;;;;;;0.10;0.10;;;-1.70;99.90;;;;;;5033164;28;20433;-64
2021/12/22 09:21:28;;;;;;;0.10;0.10;;;-1.60;99.90;;;;;;5042307;28;20082;-63
2021/12/22 09:23:54;;;;;;;0.15;0.15;;;-1.60;99.90;;;;;;5031846;28;20029;-65
2021/12/22 09:26:19;;;;;;;0.10;0.10;;;-1.40;99.90;;;;;;5040434;28;20025;-66
2021/12/22 09:28:45;;;;;;;0.90;0.90;;;-1.40;99.90;;;;;;5038218;28;20095;-63
2021/12/22 09:31:12;;;;;;;0.10;0.10;;;-1.20;99.90;;;;;;5043802;28;20420;-66
2021/12/22 09:33:38;;;;;;;0.10;0.10;;;-1.20;99.90;;;;;;5045710;28;20033;-63
2021/12/22 09:36:07;;;;;;;0.10;0.10;;;-1.30;99.90;;;;;;5043402;28;20473;-66
2021/12/22 09:38:34;;;;;;;0.15;0.15;;;-1.20;99.90;;;;;;5040525;28;20035;-67
2021/12/22 09:41:02;;;;;;;0.10;0.10;;;-1.20;99.90;;;;;;5034058;28;20073;-69
2021/12/22 09:43:28;;;;;;;0.10;0.10;;;-1.10;99.90;;;;;;5040157;28;20499;-67
2021/12/22 09:46:00;;;;;;;0.20;0.20;;;-1.10;99.90;;;;;;5040760;28;20112;-69
2021/12/22 09:48:37;;;;;;;0.10;0.10;;;-1.10;99.90;;;;;;5042091;28;20370;-65
2021/12/22 09:53:39;;;;;;;0.10;0.10;;;-1.00;99.90;;;;;;5036936;28;20029;-65
2021/12/22 09:56:05;;;;;;;1.30;1.15;;;-1.10;99.90;;;;;;5050580;28;20033;-64
2021/12/22 09:58:32;;;;;;;2.72;1.70;;;-0.90;99.90;;;;;;5051148;28;20064;-62
2021/12/22 10:00:58;;;;;;;1.05;1.00;;;-0.80;99.90;;;;;;5043328;28;20053;-67
2021/12/22 10:03:25;;;;;;;0.15;0.15;;;-0.60;99.90;;;;;;5031453;28;20438;-65
2021/12/22 10:05:52;;;;;;;0.10;0.10;;;-0.50;99.90;;;;;;5030839;28;20026;-65
2021/12/22 10:08:26;;;;;;;0.10;0.10;;;-0.50;99.90;;;;;;5037312;28;20041;-63
2021/12/22 10:11:04;;;;;;;0.40;0.40;;;-0.60;99.90;;;;;;5049523;28;20029;-66
2021/12/22 10:13:30;;;;;;;1.67;1.58;;;-0.60;99.90;;;;;;5044403;28;20037;-67
2021/12/22 10:15:57;;;;;;;0.75;0.75;;;-0.50;99.90;;;;;;5040801;28;20029;-65
2021/12/22 10:18:29;;;;;;;0.20;0.20;;;-0.40;99.90;;;;;;5038537;28;20036;-69
2021/12/22 10:21:14;;;;;;;0.10;0.10;;;-0.30;99.90;;;;;;5041998;28;20025;-70
2021/12/22 10:23:45;;;;;;;0.10;0.10;;;-0.20;99.90;;;;;;5034788;28;20053;-72
2021/12/22 10:26:16;;;;;;;0.10;0.10;;;-0.20;99.90;;;;;;5041909;28;20021;-66
2021/12/22 10:29:05;;;;;;;0.10;0.10;;;0.00;99.90;;;;;;5041975;28;20021;-67
2021/12/22 10:31:44;;;;;;;0.10;0.10;;;0.00;99.90;;;;;;5030012;28;20032;-64
2021/12/22 10:34:20;;;;;;;0.10;0.10;;;0.10;99.90;;;;;;5036142;28;20025;-64
2021/12/22 10:36:54;;;;;;;0.10;0.10;;;0.20;99.90;;;;;;5038238;28;20513;-66
2021/12/22 10:39:31;;;;;;;2.13;1.27;;;0.20;99.90;;;;;;5048720;28;20940;-68
2021/12/22 10:42:08;;;;;;;0.10;0.10;;;0.40;99.90;;;;;;5044818;28;20413;-67
2021/12/22 10:44:39;;;;;;;0.10;0.10;;;0.20;99.90;;;;;;5040268;28;20044;-69
2021/12/22 10:49:14;;;;;;;0.10;0.10;;;0.20;99.90;;;;;;5046531;28;20057;-69
2021/12/22 10:50:23;;;;;;;0.20;0.20;;;0.20;99.90;;;;;;5044291;28;20025;-66
2021/12/22 10:52:52;;;;;;;0.35;0.35;;;0.20;99.90;;;;;;5046675;28;20025;-66
2021/12/22 10:55:18;;;;;;;1.48;1.38;;;0.40;99.90;;;;;;5048725;28;20017;-65
2021/12/22 10:57:47;;;;;;;0.10;0.10;;;0.40;99.90;;;;;;5042922;28;20026;-66
2021/12/22 11:00:17;;;;;;;0.10;0.10;;;0.40;99.90;;;;;;5046216;28;20029;-66
2021/12/22 11:02:50;;;;;;;0.65;0.65;;;0.50;99.90;;;;;;5042278;28;20026;-65
2021/12/22 11:05:27;;;;;;;0.20;0.20;;;0.50;99.90;;;;;;5038046;28;20029;-65
2021/12/22 11:07:54;;;;;;;0.10;0.10;;;0.70;99.90;;;;;;5043428;28;20040;-65
2021/12/22 11:10:29;;;;;;;0.30;0.30;;;0.80;99.90;;;;;;5045976;28;20028;-71
2021/12/22 11:13:04;;;;;;;0.10;0.10;;;0.80;99.90;;;;;;5046426;28;20041;-65
2021/12/22 11:15:30;;;;;;;0.10;0.10;;;0.80;99.90;;;;;;5048038;28;20055;-66
2021/12/22 11:17:56;;;;;;;0.10;0.10;;;0.90;99.90;;;;;;5049804;28;20600;-68
2021/12/22 11:20:23;;;;;;;0.85;0.85;;;0.90;99.90;;;;;;5040090;28;20072;-67
2021/12/22 11:23:04;;;;;;;0.10;0.10;;;1.00;99.90;;;;;;5029745;28;20026;-65
2021/12/22 11:25:31;;;;;;;0.10;0.10;;;0.90;99.90;;;;;;5028760;28;20025;-66
2021/12/22 11:27:58;;;;;;;0.10;0.10;;;1.00;99.90;;;;;;5029112;28;20021;-67
2021/12/22 11:30:26;;;;;;;0.10;0.10;;;1.00;99.90;;;;;;5032778;28;20426;-66
2021/12/22 11:32:56;;;;;;;0.10;0.10;;;1.30;99.90;;;;;;5046799;28;20044;-66
2021/12/22 11:35:23;;;;;;;0.10;0.10;;;1.30;99.90;;;;;;5041558;28;20032;-66
2021/12/22 11:37:49;;;;;;;0.10;0.10;;;1.30;99.90;;;;;;5044637;28;20048;-68
2021/12/22 11:40:22;;;;;;;0.10;0.10;;;1.30;99.90;;;;;;5038722;28;20029;-72
2021/12/22 11:42:47;;;;;;;0.10;0.10;;;1.40;99.90;;;;;;5039687;28;20056;-66
2021/12/22 11:45:20;;;;;;;0.10;0.10;;;1.50;99.90;;;;;;5049025;28;20068;-65
2021/12/22 11:47:49;;;;;;;0.10;0.10;;;1.50;99.90;;;;;;5046180;28;20030;-65
2021/12/22 11:50:22;;;;;;;0.47;0.47;;;1.50;99.90;;;;;;5036013;28;20029;-66
2021/12/22 11:52:59;;;;;;;0.10;0.10;;;1.50;99.90;;;;;;5043950;28;20033;-66
2021/12/22 11:55:36;;;;;;;0.90;0.90;;;1.50;99.90;;;;;;5045286;28;20139;-67
2021/12/22 11:58:18;;;;;;;0.10;0.10;;;1.60;99.90;;;;;;5045970;28;20501;-66
2021/12/22 12:00:59;;;;;;;0.20;0.20;;;1.50;99.90;;;;;;5045023;28;20025;-67
2021/12/22 12:03:30;;;;;;;0.10;0.10;;;1.60;99.90;;;;;;5046752;28;20461;-66
2021/12/22 12:06:19;;;;;;;1.73;1.63;;;1.60;99.90;;;;;;5038705;28;20025;-67
2021/12/22 12:08:52;;;;;;;0.10;0.10;;;1.60;99.90;;;;;;5032106;28;20030;-65
2021/12/22 12:11:49;;;;;;;0.10;0.10;;;1.70;99.90;;;;;;5047829;28;20106;-65
2021/12/22 12:23:31;;;;;;;0.17;0.17;;;1.60;99.90;;;;;;5042012;28;20047;-65
2021/12/22 12:26:02;;;;;;;0.10;0.10;;;1.80;99.90;;;;;;5040067;28;20045;-67
2021/12/22 12:28:30;;;;;;;0.10;0.10;;;1.90;99.90;;;;;;5045566;28;20025;-66
2021/12/22 12:30:58;;;;;;;0.10;0.10;;;2.00;99.90;;;;;;5042089;28;20021;-68
2021/12/22 12:33:33;;;;;;;0.20;0.20;;;2.00;99.90;;;;;;5045236;28;20054;-67
2021/12/22 12:36:09;;;;;;;0.17;0.17;;;2.10;99.90;;;;;;5041592;28;20022;-71
2021/12/22 12:38:40;;;;;;;2.35;2.20;;;2.10;99.90;;;;;;5040136;28;20121;-68
2021/12/22 12:41:11;;;;;;;0.10;0.10;;;2.00;99.90;;;;;;5037397;28;20036;-65
2021/12/22 12:43:45;;;;;;;0.10;0.10;;;2.10;99.90;;;;;;5038798;28;20044;-66
2021/12/22 12:46:24;;;;;;;0.10;0.10;;;2.10;99.90;;;;;;5034102;28;20071;-66
2021/12/22 12:48:55;;;;;;;1.38;1.27;;;2.10;99.90;;;;;;5033980;28;20032;-67
2021/12/22 12:51:28;;;;;;;0.10;0.10;;;2.10;99.90;;;;;;5042703;28;20064;-64
2021/12/22 12:53:58;;;;;;;0.10;0.10;;;1.90;99.90;;;;;;5040619;28;20057;-66
2021/12/22 12:56:31;;;;;;;0.10;0.10;;;1.90;99.90;;;;;;5037875;28;20036;-64
2021/12/22 12:59:02;;;;;;;0.20;0.20;;;1.90;99.90;;;;;;5042318;28;20044;-66
2021/12/22 13:01:47;;;;;;;0.10;0.10;;;1.90;99.90;;;;;;5036731;28;20040;-67
2021/12/22 13:04:33;;;;;;;0.10;0.10;;;1.90;99.90;;;;;;5044331;28;20048;-64
2021/12/22 13:07:15;;;;;;;0.10;0.10;;;2.00;99.90;;;;;;5043018;28;20024;-66
2021/12/22 13:10:01;;;;;;;0.17;0.17;;;2.00;99.90;;;;;;5045628;28;20039;-66
